TAP238 LPPR-LPMA
Flight info
| Callsign | TAP238 |
|---|---|
| Flight time | 1h 1m |
| Altitude | 37000 |
| Route | ASMOV DCT DIRMA DCT VABEM DCT LIDRO |
| Aircraft | A20N/M-SDE2E3FGHIRWXY/LB1 |
Departure
| Time | 2026-05-06 21:41 |
|---|---|
| Airport | Francisco de Sá Carneiro Airport (LPPR) |
Arrival
| Time | 2026-05-06 22:42 |
|---|---|
| Airport | Cristiano Ronaldo International Airport (LPMA) |
| Time | Latitude | Longitude | Altitude | Speed | Heading |
|---|---|---|---|---|---|
| 2026-05-06 21:22 | 41.23641 | -8.67234 | 245 ft | 0 kts | 79° |
| 2026-05-06 21:35 | 41.23639 | -8.67254 | 245 ft | 4 kts | 81° |
| 2026-05-06 21:35 | 41.23636 | -8.67289 | 244 ft | 4 kts | 90° |
| 2026-05-06 21:35 | 41.23639 | -8.67323 | 242 ft | 4 kts | 124° |
| 2026-05-06 21:35 | 41.23650 | -8.67336 | 242 ft | 1 kts | 168° |
| 2026-05-06 21:37 | 41.23644 | -8.67334 | 242 ft | 3 kts | 168° |
| 2026-05-06 21:37 | 41.23610 | -8.67331 | 241 ft | 7 kts | 184° |
| 2026-05-06 21:38 | 41.23546 | -8.67364 | 241 ft | 12 kts | 209° |
| 2026-05-06 21:38 | 41.23451 | -8.67376 | 239 ft | 12 kts | 167° |
| 2026-05-06 21:38 | 41.23370 | -8.67365 | 238 ft | 12 kts | 197° |
| 2026-05-06 21:38 | 41.23325 | -8.67469 | 237 ft | 13 kts | 259° |
| 2026-05-06 21:39 | 41.23318 | -8.67524 | 237 ft | 4 kts | 260° |
| 2026-05-06 21:39 | 41.23312 | -8.67566 | 238 ft | 6 kts | 260° |
| 2026-05-06 21:39 | 41.23303 | -8.67634 | 237 ft | 9 kts | 259° |
| 2026-05-06 21:39 | 41.23296 | -8.67719 | 238 ft | 7 kts | 290° |
| 2026-05-06 21:40 | 41.23338 | -8.67743 | 238 ft | 9 kts | 346° |
| 2026-05-06 21:40 | 41.23534 | -8.67792 | 237 ft | 65 kts | 351° |
| 2026-05-06 21:40 | 41.24204 | -8.67963 | 214 ft | 128 kts | 348° |
| 2026-05-06 21:40 | 41.25239 | -8.68236 | 302 ft | 163 kts | 349° |
| 2026-05-06 21:41 | 41.26262 | -8.68497 | 1058 ft | 151 kts | 349° |
| 2026-05-06 21:41 | 41.27303 | -8.68752 | 1811 ft | 152 kts | 350° |
| 2026-05-06 21:41 | 41.28390 | -8.69008 | 2302 ft | 163 kts | 350° |
| 2026-05-06 21:41 | 41.29539 | -8.69271 | 2865 ft | 173 kts | 351° |
| 2026-05-06 21:42 | 41.30775 | -8.69543 | 3360 ft | 191 kts | 351° |
| 2026-05-06 21:42 | 41.32170 | -8.69839 | 3774 ft | 220 kts | 351° |
| 2026-05-06 21:42 | 41.33747 | -8.70345 | 4348 ft | 248 kts | 334° |
| 2026-05-06 21:42 | 41.35114 | -8.71883 | 4955 ft | 271 kts | 304° |
| 2026-05-06 21:43 | 41.35737 | -8.74289 | 5807 ft | 281 kts | 271° |
| 2026-05-06 21:43 | 41.35334 | -8.76812 | 6882 ft | 286 kts | 242° |
| 2026-05-06 21:43 | 41.34052 | -8.78859 | 7799 ft | 292 kts | 219° |
| 2026-05-06 21:43 | 41.32434 | -8.80440 | 9107 ft | 280 kts | 206° |
| 2026-05-06 21:44 | 41.30757 | -8.81611 | 10542 ft | 273 kts | 213° |
| 2026-05-06 21:44 | 41.29195 | -8.83176 | 11200 ft | 291 kts | 217° |
| 2026-05-06 21:44 | 41.27569 | -8.84972 | 11639 ft | 315 kts | 219° |
| 2026-05-06 21:44 | 41.25865 | -8.86872 | 12169 ft | 332 kts | 219° |
| 2026-05-06 21:45 | 41.24056 | -8.88858 | 12947 ft | 340 kts | 219° |
| 2026-05-06 21:45 | 41.22197 | -8.90865 | 13823 ft | 346 kts | 219° |
| 2026-05-06 21:45 | 41.20319 | -8.92876 | 14732 ft | 347 kts | 219° |
| 2026-05-06 21:45 | 41.18424 | -8.94895 | 15560 ft | 352 kts | 219° |
| 2026-05-06 21:46 | 41.16502 | -8.96939 | 16348 ft | 357 kts | 219° |
| 2026-05-06 21:46 | 41.14533 | -8.99031 | 17210 ft | 359 kts | 219° |
| 2026-05-06 21:46 | 41.12582 | -9.01103 | 18169 ft | 360 kts | 219° |
| 2026-05-06 21:46 | 41.10633 | -9.03173 | 18779 ft | 367 kts | 219° |
| 2026-05-06 21:47 | 41.08624 | -9.05304 | 19421 ft | 371 kts | 218° |
| 2026-05-06 21:47 | 41.06612 | -9.07437 | 20252 ft | 371 kts | 218° |
| 2026-05-06 21:47 | 41.04599 | -9.09568 | 21055 ft | 372 kts | 218° |
| 2026-05-06 21:47 | 41.02543 | -9.11744 | 21459 ft | 383 kts | 218° |
| 2026-05-06 21:48 | 41.00452 | -9.13955 | 22156 ft | 385 kts | 218° |
| 2026-05-06 21:48 | 40.98365 | -9.16160 | 23027 ft | 384 kts | 218° |
| 2026-05-06 21:48 | 40.96262 | -9.18379 | 23630 ft | 390 kts | 218° |
| 2026-05-06 21:48 | 40.94127 | -9.20631 | 24110 ft | 394 kts | 218° |
| 2026-05-06 21:49 | 40.91995 | -9.22879 | 24860 ft | 392 kts | 218° |
| 2026-05-06 21:49 | 40.89881 | -9.25104 | 25341 ft | 397 kts | 218° |
| 2026-05-06 21:49 | 40.87702 | -9.27394 | 25761 ft | 402 kts | 218° |
| 2026-05-06 21:49 | 40.84031 | -9.31248 | 26738 ft | 405 kts | 218° |
| 2026-05-06 21:50 | 40.79570 | -9.35924 | 27740 ft | 410 kts | 218° |
| 2026-05-06 21:50 | 40.75064 | -9.40638 | 28555 ft | 418 kts | 218° |
| 2026-05-06 21:50 | 40.70499 | -9.45405 | 29418 ft | 423 kts | 218° |
| 2026-05-06 21:50 | 40.65866 | -9.50233 | 30285 ft | 427 kts | 219° |
| 2026-05-06 21:51 | 40.61147 | -9.55144 | 30901 ft | 434 kts | 219° |
| 2026-05-06 21:51 | 40.56376 | -9.60097 | 31617 ft | 439 kts | 219° |
| 2026-05-06 21:51 | 40.51608 | -9.65037 | 32545 ft | 438 kts | 219° |
| 2026-05-06 21:51 | 40.46805 | -9.70004 | 33380 ft | 438 kts | 219° |
| 2026-05-06 21:52 | 40.41999 | -9.74967 | 34130 ft | 438 kts | 220° |
| 2026-05-06 21:52 | 40.37199 | -9.79917 | 34727 ft | 440 kts | 219° |
| 2026-05-06 21:52 | 40.32390 | -9.84863 | 35314 ft | 442 kts | 220° |
| 2026-05-06 21:52 | 40.27542 | -9.89840 | 35804 ft | 444 kts | 220° |
| 2026-05-06 21:53 | 40.22728 | -9.94773 | 36409 ft | 444 kts | 220° |
| 2026-05-06 21:53 | 40.17858 | -9.99757 | 36933 ft | 444 kts | 220° |
| 2026-05-06 21:53 | 40.08152 | -10.09663 | 36995 ft | 442 kts | 220° |
| 2026-05-06 21:54 | 39.98452 | -10.19525 | 36999 ft | 442 kts | 220° |
| 2026-05-06 21:54 | 39.88635 | -10.29468 | 37003 ft | 447 kts | 220° |
| 2026-05-06 21:55 | 39.78854 | -10.39337 | 37005 ft | 448 kts | 220° |
| 2026-05-06 21:55 | 39.69047 | -10.49195 | 36998 ft | 445 kts | 220° |
| 2026-05-06 21:56 | 39.59265 | -10.58993 | 37011 ft | 447 kts | 221° |
| 2026-05-06 21:56 | 39.49313 | -10.68925 | 37005 ft | 450 kts | 221° |
| 2026-05-06 21:57 | 39.39364 | -10.78817 | 37009 ft | 451 kts | 221° |
| 2026-05-06 21:57 | 39.29403 | -10.88684 | 37000 ft | 451 kts | 221° |
| 2026-05-06 21:58 | 39.19493 | -10.98461 | 37004 ft | 454 kts | 221° |
| 2026-05-06 21:58 | 39.09416 | -11.08371 | 37036 ft | 455 kts | 221° |
| 2026-05-06 21:59 | 38.99299 | -11.18286 | 37026 ft | 466 kts | 221° |
| 2026-05-06 21:59 | 38.88884 | -11.28448 | 37016 ft | 470 kts | 221° |
| 2026-05-06 22:00 | 38.78398 | -11.38642 | 37014 ft | 473 kts | 221° |
| 2026-05-06 22:00 | 38.67981 | -11.48732 | 37027 ft | 472 kts | 221° |
| 2026-05-06 22:01 | 38.57497 | -11.58850 | 37019 ft | 472 kts | 221° |
| 2026-05-06 22:01 | 38.47009 | -11.68932 | 37027 ft | 472 kts | 221° |
| 2026-05-06 22:02 | 38.36521 | -11.78978 | 37031 ft | 472 kts | 221° |
| 2026-05-06 22:02 | 38.26022 | -11.88998 | 37020 ft | 471 kts | 221° |
| 2026-05-06 22:03 | 38.15522 | -11.98982 | 37042 ft | 471 kts | 221° |
| 2026-05-06 22:03 | 38.05071 | -12.08882 | 37035 ft | 476 kts | 222° |
| 2026-05-06 22:04 | 37.94457 | -12.18899 | 37041 ft | 475 kts | 222° |
| 2026-05-06 22:04 | 37.83868 | -12.28857 | 37039 ft | 475 kts | 222° |
| 2026-05-06 22:05 | 37.73325 | -12.38735 | 37045 ft | 475 kts | 222° |
| 2026-05-06 22:05 | 37.62685 | -12.48665 | 37048 ft | 476 kts | 223° |
| 2026-05-06 22:06 | 37.52038 | -12.58569 | 37047 ft | 476 kts | 223° |
| 2026-05-06 22:06 | 37.41394 | -12.68433 | 37050 ft | 475 kts | 223° |
| 2026-05-06 22:07 | 37.32534 | -12.76618 | 37054 ft | 475 kts | 223° |
| 2026-05-06 22:07 | 37.20114 | -12.88048 | 37049 ft | 477 kts | 223° |
| 2026-05-06 22:08 | 37.09414 | -12.97858 | 37069 ft | 477 kts | 223° |
| 2026-05-06 22:08 | 37.00502 | -13.06001 | 37048 ft | 477 kts | 223° |
| 2026-05-06 22:09 | 36.89776 | -13.15766 | 37065 ft | 474 kts | 224° |
| 2026-05-06 22:09 | 36.79099 | -13.25455 | 37070 ft | 475 kts | 224° |
| 2026-05-06 22:10 | 36.68411 | -13.35120 | 37070 ft | 474 kts | 224° |
| 2026-05-06 22:10 | 36.57800 | -13.44684 | 37072 ft | 474 kts | 224° |
| 2026-05-06 22:11 | 36.47124 | -13.54272 | 37075 ft | 471 kts | 224° |
| 2026-05-06 22:11 | 36.36501 | -13.63783 | 37092 ft | 471 kts | 224° |
| 2026-05-06 22:12 | 36.25860 | -13.73276 | 37065 ft | 471 kts | 224° |
| 2026-05-06 22:12 | 36.15218 | -13.82736 | 37084 ft | 471 kts | 224° |
| 2026-05-06 22:13 | 36.04679 | -13.92071 | 37081 ft | 468 kts | 224° |
| 2026-05-06 22:13 | 35.94070 | -14.01441 | 37085 ft | 469 kts | 224° |
| 2026-05-06 22:14 | 35.83464 | -14.10773 | 37087 ft | 469 kts | 224° |
| 2026-05-06 22:14 | 35.72837 | -14.20092 | 37086 ft | 469 kts | 224° |
| 2026-05-06 22:15 | 35.62207 | -14.29386 | 37090 ft | 469 kts | 224° |
| 2026-05-06 22:15 | 35.51621 | -14.38608 | 37091 ft | 469 kts | 224° |
| 2026-05-06 22:16 | 35.40977 | -14.47849 | 37087 ft | 469 kts | 223° |
| 2026-05-06 22:16 | 35.30261 | -14.57125 | 37096 ft | 473 kts | 224° |
| 2026-05-06 22:17 | 35.19531 | -14.66378 | 37078 ft | 472 kts | 223° |
| 2026-05-06 22:17 | 35.08864 | -14.75549 | 37106 ft | 472 kts | 223° |
| 2026-05-06 22:18 | 34.98117 | -14.84758 | 37099 ft | 472 kts | 223° |
| 2026-05-06 22:18 | 34.87361 | -14.93946 | 37076 ft | 471 kts | 223° |
| 2026-05-06 22:19 | 34.76640 | -15.03074 | 37102 ft | 470 kts | 222° |
| 2026-05-06 22:19 | 34.65923 | -15.12168 | 37098 ft | 470 kts | 222° |
| 2026-05-06 22:20 | 34.55239 | -15.21205 | 37101 ft | 471 kts | 222° |
| 2026-05-06 22:20 | 34.44493 | -15.30266 | 37105 ft | 471 kts | 222° |
| 2026-05-06 22:21 | 34.33841 | -15.39218 | 37103 ft | 471 kts | 222° |
| 2026-05-06 22:21 | 34.23198 | -15.48137 | 37110 ft | 472 kts | 222° |
| 2026-05-06 22:22 | 34.12292 | -15.57245 | 36926 ft | 471 kts | 222° |
| 2026-05-06 22:22 | 34.06899 | -15.61735 | 35687 ft | 470 kts | 222° |
| 2026-05-06 22:22 | 34.01561 | -15.66183 | 33978 ft | 475 kts | 222° |
| 2026-05-06 22:23 | 33.96148 | -15.70680 | 32284 ft | 472 kts | 221° |
| 2026-05-06 22:23 | 33.90723 | -15.75186 | 30419 ft | 476 kts | 221° |
| 2026-05-06 22:23 | 33.85253 | -15.79724 | 28245 ft | 479 kts | 220° |
| 2026-05-06 22:23 | 33.79724 | -15.84305 | 25900 ft | 485 kts | 219° |
| 2026-05-06 22:24 | 33.75634 | -15.87689 | 24877 ft | 486 kts | 219° |
| 2026-05-06 22:24 | 33.72826 | -15.90009 | 24735 ft | 490 kts | 219° |
| 2026-05-06 22:24 | 33.70036 | -15.92305 | 24405 ft | 485 kts | 219° |
| 2026-05-06 22:24 | 33.67310 | -15.94540 | 23862 ft | 478 kts | 218° |
| 2026-05-06 22:25 | 33.64477 | -15.96725 | 23082 ft | 473 kts | 217° |
| 2026-05-06 22:25 | 33.61782 | -15.98849 | 22232 ft | 466 kts | 218° |
| 2026-05-06 22:25 | 33.59114 | -16.01000 | 21440 ft | 459 kts | 218° |
| 2026-05-06 22:25 | 33.56477 | -16.03128 | 20591 ft | 454 kts | 218° |
| 2026-05-06 22:26 | 33.53874 | -16.05219 | 19765 ft | 449 kts | 217° |
| 2026-05-06 22:26 | 33.51277 | -16.07292 | 18968 ft | 445 kts | 217° |
| 2026-05-06 22:26 | 33.48709 | -16.09336 | 18154 ft | 440 kts | 217° |
| 2026-05-06 22:26 | 33.46176 | -16.11347 | 17345 ft | 434 kts | 217° |
| 2026-05-06 22:27 | 33.43686 | -16.13320 | 16562 ft | 428 kts | 217° |
| 2026-05-06 22:27 | 33.41213 | -16.15279 | 15768 ft | 422 kts | 217° |
| 2026-05-06 22:27 | 33.38840 | -16.17158 | 15057 ft | 418 kts | 217° |
| 2026-05-06 22:27 | 33.36387 | -16.19103 | 14342 ft | 427 kts | 216° |
| 2026-05-06 22:28 | 33.33919 | -16.21055 | 13611 ft | 421 kts | 216° |
| 2026-05-06 22:28 | 33.31504 | -16.22963 | 12836 ft | 413 kts | 216° |
| 2026-05-06 22:28 | 33.29119 | -16.24845 | 12062 ft | 406 kts | 216° |
| 2026-05-06 22:28 | 33.26775 | -16.26694 | 11335 ft | 403 kts | 216° |
| 2026-05-06 22:29 | 33.24462 | -16.28519 | 10787 ft | 393 kts | 216° |
| 2026-05-06 22:29 | 33.22217 | -16.30285 | 10419 ft | 378 kts | 216° |
| 2026-05-06 22:29 | 33.20057 | -16.31983 | 10073 ft | 365 kts | 216° |
| 2026-05-06 22:29 | 33.17971 | -16.33624 | 9687 ft | 353 kts | 216° |
| 2026-05-06 22:30 | 33.15951 | -16.35213 | 9286 ft | 343 kts | 216° |
| 2026-05-06 22:30 | 33.14013 | -16.36737 | 8904 ft | 334 kts | 216° |
| 2026-05-06 22:30 | 33.12097 | -16.38244 | 8521 ft | 326 kts | 216° |
| 2026-05-06 22:30 | 33.10230 | -16.39710 | 8140 ft | 318 kts | 216° |
| 2026-05-06 22:31 | 33.08405 | -16.41143 | 7762 ft | 310 kts | 216° |
| 2026-05-06 22:31 | 33.06640 | -16.42527 | 7392 ft | 296 kts | 216° |
| 2026-05-06 22:31 | 33.04955 | -16.43848 | 7026 ft | 284 kts | 216° |
| 2026-05-06 22:31 | 33.03326 | -16.45124 | 6660 ft | 282 kts | 216° |
| 2026-05-06 22:32 | 33.01673 | -16.46421 | 6290 ft | 285 kts | 216° |
| 2026-05-06 22:32 | 33.00018 | -16.47719 | 5842 ft | 285 kts | 216° |
| 2026-05-06 22:32 | 32.98373 | -16.49008 | 5477 ft | 281 kts | 215° |
| 2026-05-06 22:32 | 32.96768 | -16.50265 | 5113 ft | 278 kts | 215° |
| 2026-05-06 22:33 | 32.95156 | -16.51524 | 4752 ft | 276 kts | 215° |
| 2026-05-06 22:33 | 32.93565 | -16.52767 | 4392 ft | 273 kts | 215° |
| 2026-05-06 22:33 | 32.91983 | -16.54004 | 4038 ft | 270 kts | 214° |
| 2026-05-06 22:33 | 32.90421 | -16.55223 | 3687 ft | 268 kts | 215° |
| 2026-05-06 22:34 | 32.88866 | -16.56438 | 3333 ft | 266 kts | 215° |
| 2026-05-06 22:34 | 32.87330 | -16.57636 | 3056 ft | 261 kts | 215° |
| 2026-05-06 22:34 | 32.85847 | -16.58790 | 2993 ft | 247 kts | 215° |
| 2026-05-06 22:34 | 32.84454 | -16.59886 | 2964 ft | 234 kts | 216° |
| 2026-05-06 22:35 | 32.83148 | -16.60962 | 2882 ft | 225 kts | 217° |
| 2026-05-06 22:35 | 32.81887 | -16.62020 | 2742 ft | 219 kts | 217° |
| 2026-05-06 22:35 | 32.80647 | -16.63059 | 2500 ft | 219 kts | 218° |
| 2026-05-06 22:35 | 32.79406 | -16.64095 | 2225 ft | 219 kts | 217° |
| 2026-05-06 22:36 | 32.78177 | -16.65115 | 2098 ft | 212 kts | 217° |
| 2026-05-06 22:36 | 32.76997 | -16.66089 | 2020 ft | 201 kts | 218° |
| 2026-05-06 22:36 | 32.75860 | -16.67029 | 1863 ft | 199 kts | 218° |
| 2026-05-06 22:36 | 32.74733 | -16.67961 | 1670 ft | 196 kts | 218° |
| 2026-05-06 22:37 | 32.73642 | -16.68866 | 1638 ft | 184 kts | 217° |
| 2026-05-06 22:37 | 32.72596 | -16.69732 | 1347 ft | 183 kts | 217° |
| 2026-05-06 22:37 | 32.71575 | -16.70578 | 1272 ft | 177 kts | 216° |
| 2026-05-06 22:37 | 32.70597 | -16.71388 | 1243 ft | 169 kts | 216° |
| 2026-05-06 22:38 | 32.69624 | -16.72194 | 1252 ft | 171 kts | 216° |
| 2026-05-06 22:38 | 32.68681 | -16.72982 | 1276 ft | 164 kts | 220° |
| 2026-05-06 22:38 | 32.67770 | -16.73838 | 1295 ft | 167 kts | 218° |
| 2026-05-06 22:38 | 32.66899 | -16.74553 | 1239 ft | 149 kts | 215° |
| 2026-05-06 22:39 | 32.66034 | -16.75211 | 1172 ft | 152 kts | 213° |
| 2026-05-06 22:39 | 32.65127 | -16.75849 | 1117 ft | 151 kts | 213° |
| 2026-05-06 22:39 | 32.64342 | -16.76620 | 1154 ft | 148 kts | 240° |
| 2026-05-06 22:39 | 32.64209 | -16.77784 | 1128 ft | 142 kts | 288° |
| 2026-05-06 22:40 | 32.64773 | -16.78640 | 942 ft | 131 kts | 333° |
| 2026-05-06 22:40 | 32.65528 | -16.79227 | 884 ft | 133 kts | 319° |
| 2026-05-06 22:40 | 32.66230 | -16.79888 | 789 ft | 125 kts | 335° |
| 2026-05-06 22:40 | 32.67063 | -16.80082 | 650 ft | 122 kts | 3° |
| 2026-05-06 22:41 | 32.68448 | -16.79012 | 357 ft | 123 kts | 42° |
| 2026-05-06 22:41 | 32.69049 | -16.78312 | 207 ft | 118 kts | 40° |
| 2026-05-06 22:41 | 32.69596 | -16.77680 | 178 ft | 101 kts | 42° |
| 2026-05-06 22:42 | 32.69909 | -16.77313 | 176 ft | 33 kts | 48° |
| 2026-05-06 22:42 | 32.69928 | -16.77197 | 176 ft | 13 kts | 149° |
| 2026-05-06 22:42 | 32.69834 | -16.77192 | 176 ft | 14 kts | 208° |
| 2026-05-06 22:42 | 32.69758 | -16.77281 | 176 ft | 18 kts | 230° |
| 2026-05-06 22:43 | 32.69662 | -16.77393 | 176 ft | 21 kts | 225° |
| 2026-05-06 22:43 | 32.69577 | -16.77490 | 176 ft | 17 kts | 225° |
| 2026-05-06 22:43 | 32.69508 | -16.77562 | 176 ft | 8 kts | 183° |
| 2026-05-06 22:43 | 32.69479 | -16.77533 | 176 ft | 7 kts | 142° |
| 2026-05-06 22:44 | 32.69468 | -16.77523 | 176 ft | 0 kts | 142° |
| 2026-05-06 22:44 | 32.69463 | -16.77517 | 176 ft | 0 kts | 139° |